createdAt,value
2018-10-05T00:01:21.929Z,99.90
2018-10-05T00:03:50.024Z,99.90
2018-10-05T00:06:18.190Z,99.90
2018-10-05T00:08:46.260Z,99.90
2018-10-05T00:11:14.376Z,99.90
2018-10-05T00:13:42.497Z,99.90
2018-10-05T00:16:10.567Z,99.90
2018-10-05T00:18:38.859Z,99.90
2018-10-05T00:21:06.963Z,99.90
2018-10-05T00:23:35.140Z,99.90
2018-10-05T00:26:03.476Z,99.90
2018-10-05T00:28:31.589Z,99.90
2018-10-05T00:30:59.668Z,99.90
2018-10-05T00:33:27.731Z,99.90
2018-10-05T00:35:55.812Z,99.90
2018-10-05T00:38:23.962Z,99.90
2018-10-05T00:40:58.374Z,99.90
2018-10-05T00:43:26.778Z,99.90
2018-10-05T00:45:54.845Z,99.90
2018-10-05T00:48:23.033Z,99.90
2018-10-05T00:50:51.133Z,99.90
2018-10-05T00:53:19.216Z,99.90
2018-10-05T00:55:47.334Z,99.90
2018-10-05T00:58:15.431Z,99.90
2018-10-05T01:00:43.600Z,99.90
2018-10-05T01:03:11.712Z,99.90
2018-10-05T01:05:39.794Z,99.90
2018-10-05T01:08:07.919Z,99.90
2018-10-05T01:10:36.050Z,99.90
2018-10-05T01:13:04.119Z,99.90
2018-10-05T01:15:32.209Z,99.90
2018-10-05T01:18:00.394Z,99.90
2018-10-05T01:20:28.611Z,99.90
2018-10-05T01:22:56.724Z,99.90
2018-10-05T01:25:24.836Z,99.90
2018-10-05T01:27:52.964Z,99.90
2018-10-05T01:30:21.109Z,99.90
2018-10-05T01:32:49.225Z,99.90
2018-10-05T01:35:17.320Z,99.90
2018-10-05T01:37:45.449Z,99.90
2018-10-05T01:40:13.519Z,99.90
2018-10-05T01:42:41.598Z,99.90
2018-10-05T01:45:09.692Z,99.90
2018-10-05T01:47:37.780Z,99.90
2018-10-05T01:50:06.027Z,99.90
2018-10-05T01:52:34.126Z,99.90
2018-10-05T01:55:02.214Z,99.90
2018-10-05T01:57:30.316Z,99.90
2018-10-05T01:59:58.604Z,99.90
2018-10-05T02:02:27.091Z,99.90
2018-10-05T02:04:55.148Z,99.90
2018-10-05T02:07:23.257Z,99.90
2018-10-05T02:09:51.326Z,99.90
2018-10-05T02:12:19.435Z,99.90
2018-10-05T02:14:47.678Z,99.90
2018-10-05T02:17:15.779Z,99.90
2018-10-05T02:19:43.890Z,99.90
2018-10-05T02:22:12.008Z,99.90
2018-10-05T02:24:40.114Z,99.90
2018-10-05T02:27:08.217Z,99.90
2018-10-05T02:29:36.300Z,99.90
2018-10-05T02:32:04.400Z,99.90
2018-10-05T02:34:32.548Z,99.90
2018-10-05T02:37:00.601Z,99.90
2018-10-05T02:39:28.734Z,99.90
2018-10-05T02:41:56.839Z,99.90
2018-10-05T02:44:24.942Z,99.90
2018-10-05T02:46:53.043Z,99.90
2018-10-05T02:49:21.157Z,99.90
2018-10-05T02:51:49.349Z,99.90
2018-10-05T02:54:17.482Z,99.90
2018-10-05T02:56:45.586Z,99.90
2018-10-05T02:59:13.706Z,99.90
2018-10-05T03:01:52.717Z,99.90
2018-10-05T03:04:20.850Z,99.90
2018-10-05T03:06:48.990Z,99.90
2018-10-05T03:09:17.137Z,99.90
2018-10-05T03:11:45.346Z,99.90
2018-10-05T03:14:13.416Z,99.90
2018-10-05T03:16:41.565Z,99.90
2018-10-05T03:19:09.679Z,99.90
2018-10-05T03:21:37.759Z,99.90
2018-10-05T03:24:05.893Z,99.90
2018-10-05T03:26:33.964Z,99.90
2018-10-05T03:29:02.125Z,99.90
2018-10-05T03:31:30.232Z,99.90
2018-10-05T03:33:58.388Z,99.90
2018-10-05T03:36:26.522Z,99.90
2018-10-05T03:38:54.584Z,99.90
2018-10-05T03:41:22.684Z,99.90
2018-10-05T03:43:50.786Z,99.90
2018-10-05T03:46:18.873Z,99.90
2018-10-05T03:48:47.052Z,99.90
2018-10-05T03:51:15.176Z,99.90
2018-10-05T03:53:43.286Z,99.90
2018-10-05T03:56:11.390Z,99.90
2018-10-05T03:58:39.467Z,99.90
2018-10-05T04:01:07.667Z,99.90
2018-10-05T04:03:35.749Z,99.90
2018-10-05T04:06:03.846Z,99.90
2018-10-05T04:08:31.982Z,99.90
2018-10-05T04:11:00.074Z,99.90
2018-10-05T04:13:28.252Z,99.90
2018-10-05T04:15:56.311Z,99.90
2018-10-05T04:18:24.420Z,99.90
2018-10-05T04:20:52.554Z,99.90
2018-10-05T04:23:20.643Z,99.90
2018-10-05T04:25:48.767Z,99.90
2018-10-05T04:28:16.960Z,99.90
2018-10-05T04:30:45.079Z,99.90
2018-10-05T04:33:13.223Z,99.90
2018-10-05T04:35:41.410Z,99.90
2018-10-05T04:38:09.453Z,99.90
2018-10-05T04:40:38.286Z,99.90
2018-10-05T04:43:06.842Z,99.90
2018-10-05T04:45:35.001Z,99.90
2018-10-05T04:48:03.141Z,99.90
2018-10-05T04:50:31.249Z,99.90
2018-10-05T04:52:59.471Z,99.90
2018-10-05T04:55:28.627Z,99.90
2018-10-05T04:57:56.852Z,99.90
2018-10-05T05:00:26.653Z,99.90
2018-10-05T05:02:54.840Z,99.90
2018-10-05T05:05:22.973Z,99.90
2018-10-05T05:07:51.378Z,99.90
2018-10-05T05:10:19.521Z,99.90
2018-10-05T05:12:47.628Z,99.90
2018-10-05T05:15:15.933Z,99.90
2018-10-05T05:17:44.071Z,99.90
2018-10-05T05:20:12.227Z,99.90
2018-10-05T05:22:40.377Z,99.90
2018-10-05T05:25:08.593Z,99.90
2018-10-05T05:27:36.702Z,99.90
2018-10-05T05:30:05.146Z,99.90
2018-10-05T05:32:33.338Z,99.90
2018-10-05T05:35:01.459Z,99.90
2018-10-05T05:37:29.562Z,99.90
2018-10-05T05:39:57.741Z,99.90
2018-10-05T05:42:25.888Z,99.90
2018-10-05T05:44:54.039Z,99.90
2018-10-05T05:47:22.196Z,99.90
2018-10-05T05:49:50.301Z,99.90
2018-10-05T05:52:18.412Z,99.90
2018-10-05T05:54:46.516Z,99.90
2018-10-05T05:57:14.688Z,99.90
2018-10-05T05:59:42.778Z,99.90
2018-10-05T06:02:10.938Z,99.90
2018-10-05T06:04:39.038Z,99.90
2018-10-05T06:07:07.196Z,99.90
2018-10-05T06:09:35.308Z,99.90
2018-10-05T06:12:03.434Z,99.90
2018-10-05T06:14:31.536Z,99.90
2018-10-05T06:16:59.711Z,99.90
2018-10-05T06:19:27.829Z,99.90
2018-10-05T06:21:56.014Z,99.90
2018-10-05T06:24:24.096Z,99.90
2018-10-05T06:26:52.219Z,99.90
2018-10-05T06:29:20.386Z,99.90
2018-10-05T06:31:48.483Z,99.90
2018-10-05T06:34:16.626Z,99.90
2018-10-05T06:36:44.811Z,99.90
2018-10-05T06:39:12.989Z,99.90
2018-10-05T06:41:41.033Z,99.90
2018-10-05T06:44:09.185Z,99.90
2018-10-05T06:46:37.276Z,99.90
2018-10-05T06:49:05.464Z,99.90
2018-10-05T06:51:33.546Z,99.90
2018-10-05T06:54:01.660Z,99.90
2018-10-05T06:56:29.809Z,99.90
2018-10-05T06:58:57.907Z,99.90
2018-10-05T07:01:26.225Z,99.90
2018-10-05T07:03:54.915Z,99.90
2018-10-05T07:06:23.073Z,99.90
2018-10-05T07:08:51.185Z,99.90
2018-10-05T07:11:19.413Z,99.90
2018-10-05T07:13:47.749Z,99.90
2018-10-05T07:16:15.834Z,99.90
2018-10-05T07:18:43.887Z,99.90
2018-10-05T07:21:12.089Z,99.90
2018-10-05T07:23:40.197Z,99.90
2018-10-05T07:26:08.408Z,99.90
2018-10-05T07:28:36.622Z,99.90
2018-10-05T07:31:04.645Z,99.90
2018-10-05T07:33:32.800Z,99.90
2018-10-05T07:36:00.921Z,99.90
2018-10-05T07:38:29.685Z,99.90
2018-10-05T07:40:57.813Z,99.90
2018-10-05T07:43:25.913Z,99.90
2018-10-05T07:45:54.053Z,99.90
2018-10-05T07:48:22.155Z,99.90
2018-10-05T07:50:50.321Z,99.90
2018-10-05T07:53:18.421Z,99.90
2018-10-05T07:55:46.509Z,99.90
2018-10-05T07:58:14.643Z,99.90
2018-10-05T08:00:42.828Z,99.90
2018-10-05T08:03:10.913Z,99.90
2018-10-05T08:05:39.040Z,99.90
2018-10-05T08:08:07.205Z,99.90
2018-10-05T08:10:35.389Z,99.90
2018-10-05T08:13:03.558Z,99.90
2018-10-05T08:15:31.647Z,99.90
2018-10-05T08:17:59.807Z,99.90
2018-10-05T08:20:28.198Z,99.90
2018-10-05T08:22:56.306Z,99.90
2018-10-05T08:25:24.428Z,99.90
2018-10-05T08:27:52.589Z,99.90
2018-10-05T08:30:20.630Z,99.90
2018-10-05T08:32:48.685Z,99.90
2018-10-05T08:35:16.818Z,99.90
2018-10-05T08:37:44.910Z,99.90
2018-10-05T08:40:13.130Z,99.90
2018-10-05T08:42:41.234Z,99.90
2018-10-05T08:45:09.323Z,99.90
2018-10-05T08:47:37.464Z,99.90
2018-10-05T08:50:05.669Z,99.90
2018-10-05T08:52:33.768Z,98.50
2018-10-05T08:55:01.851Z,97.70
2018-10-05T08:57:30.421Z,97.40
2018-10-05T08:59:58.575Z,96.60
2018-10-05T09:02:26.789Z,93.20
2018-10-05T09:04:54.899Z,93.20
2018-10-05T09:07:23.154Z,93.20
2018-10-05T09:09:51.249Z,93.90
2018-10-05T09:12:19.312Z,93.60
2018-10-05T09:14:47.391Z,94.40
2018-10-05T09:17:15.607Z,93.70
2018-10-05T09:19:43.713Z,93.60
2018-10-05T09:22:11.864Z,93.20
2018-10-05T09:24:40.020Z,87.20
2018-10-05T09:27:08.141Z,90.10
2018-10-05T09:29:36.254Z,84.30
2018-10-05T09:32:04.343Z,82.40
2018-10-05T09:34:32.413Z,76.60
2018-10-05T09:37:00.521Z,72.80
2018-10-05T09:39:28.636Z,70.40
2018-10-05T09:41:56.748Z,68.60
2018-10-05T09:44:24.846Z,69.30
2018-10-05T09:46:53.008Z,69.40
2018-10-05T09:49:21.099Z,72.40
2018-10-05T09:51:49.326Z,72.40
2018-10-05T09:54:17.437Z,75.30
2018-10-05T09:56:45.544Z,77.10
2018-10-05T09:59:13.644Z,73.70
2018-10-05T10:01:47.071Z,75.80
2018-10-05T10:04:15.180Z,72.30
2018-10-05T10:06:43.307Z,73.30
2018-10-05T10:09:11.388Z,75.80
2018-10-05T10:11:39.465Z,72.30
2018-10-05T10:14:07.572Z,70.50
2018-10-05T10:16:36.393Z,73.60
2018-10-05T10:19:04.582Z,74.30
2018-10-05T10:21:32.705Z,76.10
2018-10-05T10:24:01.012Z,79.30
2018-10-05T10:26:29.124Z,76.80
2018-10-05T10:28:57.307Z,74.70
2018-10-05T10:31:26.331Z,75.70
2018-10-05T10:33:54.419Z,74.20
2018-10-05T10:36:22.538Z,77.10
2018-10-05T10:38:50.689Z,72.60
2018-10-05T10:41:18.880Z,72.30
2018-10-05T10:43:47.064Z,74.10
2018-10-05T10:46:15.169Z,76.80
2018-10-05T10:48:43.307Z,78.60
2018-10-05T10:51:11.406Z,70.90
2018-10-05T10:53:39.464Z,70.70
2018-10-05T10:56:07.585Z,72.60
2018-10-05T10:58:35.645Z,69.20
2018-10-05T11:01:03.792Z,70.20
2018-10-05T11:03:31.934Z,64.40
2018-10-05T11:06:00.007Z,64.80
2018-10-05T11:08:28.144Z,62.00
2018-10-05T11:10:56.355Z,59.10
2018-10-05T11:13:24.628Z,64.60
2018-10-05T11:15:52.819Z,60.70
2018-10-05T11:18:20.924Z,59.50
2018-10-05T11:20:49.019Z,55.80
2018-10-05T11:23:17.213Z,55.60
2018-10-05T11:25:46.267Z,56.70
2018-10-05T11:28:14.373Z,55.70
2018-10-05T11:30:42.553Z,53.20
2018-10-05T11:33:10.664Z,50.90
2018-10-05T11:35:38.777Z,52.20
2018-10-05T11:38:06.881Z,53.40
2018-10-05T11:40:35.032Z,51.80
2018-10-05T11:43:03.088Z,53.30
2018-10-05T11:45:31.225Z,52.90
2018-10-05T11:47:59.306Z,49.50
2018-10-05T11:50:27.395Z,50.40
2018-10-05T11:52:55.497Z,49.80
2018-10-05T11:55:23.898Z,50.40
2018-10-05T11:57:52.072Z,49.70
2018-10-05T12:00:20.283Z,47.90
2018-10-05T12:02:49.195Z,48.00
2018-10-05T12:05:17.409Z,47.90
2018-10-05T12:07:45.505Z,48.50
2018-10-05T12:10:14.162Z,49.50
2018-10-05T12:12:42.257Z,49.40
2018-10-05T12:15:10.364Z,50.50
2018-10-05T12:17:38.419Z,52.10
2018-10-05T12:20:06.552Z,51.50
2018-10-05T12:22:34.696Z,48.20
2018-10-05T12:25:02.856Z,45.80
2018-10-05T12:27:30.964Z,47.40
2018-10-05T12:29:59.042Z,47.70
2018-10-05T12:32:27.131Z,47.10
2018-10-05T12:34:55.231Z,46.90
2018-10-05T12:37:23.365Z,47.50
2018-10-05T12:39:51.485Z,47.30
2018-10-05T12:42:19.609Z,48.90
2018-10-05T12:44:47.736Z,48.70
2018-10-05T12:47:15.841Z,53.70
2018-10-05T12:49:43.948Z,54.70
2018-10-05T12:52:12.927Z,56.70
2018-10-05T12:54:41.068Z,54.90
2018-10-05T12:57:09.177Z,54.80
2018-10-05T12:59:37.293Z,54.30
2018-10-05T13:02:05.392Z,53.60
2018-10-05T13:04:33.520Z,50.90
2018-10-05T13:07:01.675Z,52.80
2018-10-05T13:09:29.798Z,53.80
2018-10-05T13:11:58.000Z,54.20
2018-10-05T13:14:26.132Z,54.80
2018-10-05T13:16:54.205Z,55.30
2018-10-05T13:19:22.375Z,58.20
2018-10-05T13:21:50.531Z,54.60
2018-10-05T13:24:18.578Z,55.00
2018-10-05T13:26:46.731Z,56.30
2018-10-05T13:29:14.825Z,57.00
2018-10-05T13:31:43.000Z,58.40
2018-10-05T13:34:11.184Z,55.70
2018-10-05T13:36:39.318Z,56.30
2018-10-05T13:39:09.769Z,54.40
2018-10-05T13:41:38.179Z,56.90
2018-10-05T13:44:06.368Z,54.50
2018-10-05T13:46:34.915Z,54.30
2018-10-05T13:49:04.141Z,53.00
2018-10-05T13:51:32.264Z,52.00
2018-10-05T13:54:00.322Z,52.10
2018-10-05T13:56:28.442Z,51.70
2018-10-05T13:58:56.549Z,51.50
2018-10-05T14:01:24.677Z,50.60
2018-10-05T14:03:52.794Z,51.80
2018-10-05T14:06:20.901Z,49.90
2018-10-05T14:08:49.215Z,51.20
2018-10-05T14:11:17.349Z,51.40
2018-10-05T14:13:45.463Z,50.90
2018-10-05T14:16:13.599Z,52.00
2018-10-05T14:18:41.724Z,52.50
2018-10-05T14:21:09.840Z,54.30
2018-10-05T14:23:37.944Z,53.70
2018-10-05T14:26:06.696Z,54.50
2018-10-05T14:28:34.797Z,55.60
2018-10-05T14:31:02.996Z,57.40
2018-10-05T14:33:31.066Z,57.40
2018-10-05T14:35:59.155Z,58.30
2018-10-05T14:38:27.226Z,57.90
2018-10-05T14:40:55.344Z,59.00
2018-10-05T14:43:23.496Z,61.20
2018-10-05T14:45:51.665Z,62.30
2018-10-05T14:48:19.757Z,62.30
2018-10-05T14:50:47.919Z,61.70
2018-10-05T14:53:16.024Z,62.00
2018-10-05T14:55:44.224Z,62.00
2018-10-05T14:58:12.312Z,61.80
2018-10-05T15:00:40.435Z,63.30
2018-10-05T15:03:08.590Z,63.10
2018-10-05T15:05:36.696Z,64.10
2018-10-05T15:08:04.892Z,64.50
2018-10-05T15:10:33.051Z,63.80
2018-10-05T15:13:01.218Z,63.60
2018-10-05T15:15:29.305Z,65.50
2018-10-05T15:17:57.452Z,65.00
2018-10-05T15:20:25.644Z,65.20
2018-10-05T15:22:53.744Z,64.50
2018-10-05T15:25:21.846Z,65.30
2018-10-05T15:27:50.278Z,65.20
2018-10-05T15:30:18.460Z,65.40
2018-10-05T15:32:46.605Z,66.40
2018-10-05T15:35:14.738Z,68.00
2018-10-05T15:37:42.816Z,67.00
2018-10-05T15:40:10.961Z,66.80
2018-10-05T15:42:39.136Z,67.20
2018-10-05T15:45:07.294Z,69.20
2018-10-05T15:47:35.359Z,68.40
2018-10-05T15:50:03.505Z,67.70
2018-10-05T15:52:31.616Z,67.30
2018-10-05T15:54:59.732Z,67.80
2018-10-05T15:57:27.847Z,69.10
2018-10-05T15:59:56.055Z,68.90
2018-10-05T16:02:24.140Z,69.50
2018-10-05T16:04:52.212Z,69.40
2018-10-05T16:07:20.336Z,70.30
2018-10-05T16:09:48.430Z,75.10
2018-10-05T16:12:16.564Z,76.80
2018-10-05T16:14:44.667Z,79.30
2018-10-05T16:17:12.971Z,80.20
2018-10-05T16:19:40.976Z,81.80
2018-10-05T16:22:09.062Z,84.10
2018-10-05T16:24:41.467Z,87.30
2018-10-05T16:27:10.376Z,89.60
2018-10-05T16:29:38.673Z,91.00
2018-10-05T16:32:07.805Z,93.30
2018-10-05T16:34:35.943Z,95.90
2018-10-05T16:37:04.560Z,98.50
2018-10-05T16:39:32.790Z,99.90
2018-10-05T16:42:01.021Z,99.90
2018-10-05T16:44:29.122Z,99.90
2018-10-05T16:46:57.231Z,99.90
2018-10-05T16:49:25.373Z,99.90
2018-10-05T16:51:53.493Z,99.90
2018-10-05T16:54:21.739Z,99.90
2018-10-05T16:56:49.988Z,99.90
2018-10-05T16:59:18.186Z,99.90
2018-10-05T17:01:46.457Z,99.90
2018-10-05T17:04:14.734Z,99.90
2018-10-05T17:06:42.965Z,99.90
2018-10-05T17:09:12.329Z,99.90
2018-10-05T17:11:44.432Z,99.90
2018-10-05T17:14:12.699Z,99.90
2018-10-05T17:16:42.019Z,99.90
2018-10-05T17:19:11.078Z,99.90
2018-10-05T17:21:39.370Z,99.90
2018-10-05T17:24:07.581Z,99.90
2018-10-05T17:26:35.861Z,99.90
2018-10-05T17:29:04.076Z,99.90
2018-10-05T17:31:32.225Z,99.90
2018-10-05T17:34:00.337Z,99.90
2018-10-05T17:36:28.456Z,99.90
2018-10-05T17:38:56.612Z,99.90
2018-10-05T17:41:24.750Z,99.90
2018-10-05T17:43:52.828Z,99.90
2018-10-05T17:46:21.164Z,99.90
2018-10-05T17:48:49.454Z,99.90
2018-10-05T17:51:17.738Z,99.90
2018-10-05T17:53:45.835Z,99.90
2018-10-05T17:56:14.061Z,99.90
2018-10-05T17:58:42.123Z,99.90
2018-10-05T18:01:10.273Z,99.90
2018-10-05T18:03:38.396Z,99.90
2018-10-05T18:06:06.519Z,99.90
2018-10-05T18:08:34.676Z,99.90
2018-10-05T18:11:02.796Z,99.90
2018-10-05T18:13:30.866Z,99.90
2018-10-05T18:15:59.045Z,99.90
2018-10-05T18:18:27.144Z,99.90
2018-10-05T18:20:55.245Z,99.90
2018-10-05T18:23:23.313Z,99.90
2018-10-05T18:25:51.448Z,99.90
2018-10-05T18:28:19.640Z,99.90
2018-10-05T18:30:47.742Z,99.90
2018-10-05T18:33:15.824Z,99.90
2018-10-05T18:35:44.005Z,99.90
2018-10-05T18:38:12.101Z,99.90
2018-10-05T18:40:40.276Z,99.90
2018-10-05T18:43:08.387Z,99.90
2018-10-05T18:45:36.495Z,99.90
2018-10-05T18:48:04.596Z,99.90
2018-10-05T18:50:32.752Z,99.90
2018-10-05T18:53:01.003Z,99.90
2018-10-05T18:55:29.090Z,99.90
2018-10-05T18:57:57.179Z,99.90
2018-10-05T19:00:25.319Z,99.90
2018-10-05T19:02:53.467Z,99.90
2018-10-05T19:05:21.605Z,99.90
2018-10-05T19:07:49.735Z,99.90
2018-10-05T19:10:17.864Z,99.90
2018-10-05T19:12:46.015Z,99.90
2018-10-05T19:15:14.215Z,99.90
2018-10-05T19:17:42.329Z,99.90
2018-10-05T19:20:10.492Z,99.90
2018-10-05T19:22:38.600Z,99.90
2018-10-05T19:25:06.831Z,99.90
2018-10-05T19:27:34.987Z,99.90
2018-10-05T19:30:03.169Z,99.90
2018-10-05T19:32:31.307Z,99.90
2018-10-05T19:34:59.438Z,99.90
2018-10-05T19:37:27.936Z,99.90
2018-10-05T19:39:56.026Z,99.90
2018-10-05T19:42:24.141Z,99.90
2018-10-05T19:44:52.252Z,99.90
2018-10-05T19:47:20.316Z,99.90
2018-10-05T19:49:48.439Z,99.90
2018-10-05T19:52:16.546Z,99.90
2018-10-05T19:54:44.692Z,99.90
2018-10-05T19:57:12.886Z,99.90
2018-10-05T19:59:40.951Z,99.90
2018-10-05T20:02:09.094Z,99.90
2018-10-05T20:04:37.218Z,99.90
2018-10-05T20:07:05.351Z,99.90
2018-10-05T20:09:33.493Z,99.90
2018-10-05T20:12:01.657Z,99.90
2018-10-05T20:14:29.939Z,99.90
2018-10-05T20:16:58.179Z,99.90
2018-10-05T20:19:26.388Z,99.90
2018-10-05T20:21:54.490Z,99.90
2018-10-05T20:24:22.692Z,99.90
2018-10-05T20:26:50.750Z,99.90
2018-10-05T20:29:19.026Z,99.90
2018-10-05T20:31:47.196Z,99.90
2018-10-05T20:34:15.354Z,99.90
2018-10-05T20:36:47.068Z,99.90
2018-10-05T20:39:15.048Z,99.90
2018-10-05T20:41:43.280Z,99.90
2018-10-05T20:44:11.424Z,99.90
2018-10-05T20:46:39.711Z,99.90
2018-10-05T20:49:07.819Z,99.90
2018-10-05T20:51:36.019Z,99.90
2018-10-05T20:54:04.116Z,99.90
2018-10-05T20:56:32.189Z,99.90
2018-10-05T20:59:00.301Z,99.90
2018-10-05T21:01:28.376Z,99.90
2018-10-05T21:03:56.509Z,99.90
2018-10-05T21:06:25.740Z,99.90
2018-10-05T21:08:53.907Z,99.90
2018-10-05T21:11:22.035Z,99.90
2018-10-05T21:13:50.200Z,99.90
2018-10-05T21:16:18.276Z,99.90
2018-10-05T21:18:46.447Z,99.90
2018-10-05T21:21:14.586Z,99.90
2018-10-05T21:23:42.759Z,99.90
2018-10-05T21:26:11.005Z,99.90
2018-10-05T21:28:39.147Z,99.90
2018-10-05T21:31:07.275Z,99.90
2018-10-05T21:33:35.377Z,99.90
2018-10-05T21:36:03.527Z,99.90
2018-10-05T21:38:31.759Z,99.90
2018-10-05T21:40:59.839Z,99.90
2018-10-05T21:43:28.032Z,99.90
2018-10-05T21:45:56.271Z,99.90
2018-10-05T21:48:24.695Z,99.90
2018-10-05T21:50:52.950Z,99.90
2018-10-05T21:53:21.053Z,99.90
2018-10-05T21:55:49.241Z,99.90
2018-10-05T21:58:17.335Z,99.90
2018-10-05T22:00:45.492Z,99.90
2018-10-05T22:03:13.745Z,99.90
2018-10-05T22:05:41.858Z,99.90
2018-10-05T22:08:10.056Z,99.90
2018-10-05T22:10:38.456Z,99.90
2018-10-05T22:13:06.571Z,99.90
2018-10-05T22:15:34.821Z,99.90
2018-10-05T22:18:02.955Z,99.90
2018-10-05T22:20:31.073Z,99.90
2018-10-05T22:22:59.193Z,99.90
2018-10-05T22:25:27.245Z,99.90
2018-10-05T22:27:55.340Z,99.90
2018-10-05T22:30:23.553Z,99.90
2018-10-05T22:32:51.718Z,99.90
2018-10-05T22:35:19.820Z,99.90
2018-10-05T22:37:47.887Z,99.90
2018-10-05T22:40:16.090Z,99.90
2018-10-05T22:42:44.332Z,99.90
2018-10-05T22:45:12.620Z,99.90
2018-10-05T22:47:40.756Z,99.90
2018-10-05T22:50:09.047Z,99.90
2018-10-05T22:52:37.388Z,99.90
2018-10-05T22:55:05.531Z,99.90
2018-10-05T22:57:33.697Z,99.90
2018-10-05T23:00:01.852Z,99.90
2018-10-05T23:02:29.976Z,99.90
2018-10-05T23:04:58.092Z,99.90
2018-10-05T23:07:26.288Z,99.90
2018-10-05T23:09:54.429Z,99.90
2018-10-05T23:12:22.529Z,99.90
2018-10-05T23:14:50.577Z,99.90
2018-10-05T23:17:18.675Z,99.90
2018-10-05T23:19:46.720Z,99.90
2018-10-05T23:22:14.800Z,99.90
2018-10-05T23:24:42.894Z,99.90
2018-10-05T23:27:11.035Z,99.90
2018-10-05T23:29:39.095Z,99.90
2018-10-05T23:32:07.184Z,99.90
2018-10-05T23:34:35.279Z,99.90
2018-10-05T23:37:03.530Z,99.90
2018-10-05T23:39:31.680Z,99.90
2018-10-05T23:41:59.817Z,99.90
2018-10-05T23:44:27.916Z,99.90
2018-10-05T23:46:56.044Z,99.90
2018-10-05T23:49:24.171Z,99.90
2018-10-05T23:51:52.353Z,99.90
2018-10-05T23:54:20.468Z,99.90
2018-10-05T23:56:48.532Z,99.90
2018-10-05T23:59:16.615Z,99.90
